sensor_id;sensor_type;location;lat;lon;timestamp;pressure;altitude;pressure_sealevel;temperature;humidity
20825;BME280;10573;50.936;6.978;2023-04-02T00:02:31;100278.16;;;12.15;76.41
20825;BME280;10573;50.936;6.978;2023-04-02T00:07:40;100294.69;;;11.97;77.28
20825;BME280;10573;50.936;6.978;2023-04-02T00:12:59;100302.91;;;12.05;77.25
20825;BME280;10573;50.936;6.978;2023-04-02T00:15:25;100309.72;;;12.01;77.18
20825;BME280;10573;50.936;6.978;2023-04-02T00:17:51;100309.53;;;12.03;77.73
20825;BME280;10573;50.936;6.978;2023-04-02T00:20:16;100315.44;;;11.90;77.55
20825;BME280;10573;50.936;6.978;2023-04-02T00:22:44;100319.19;;;11.89;77.83
20825;BME280;10573;50.936;6.978;2023-04-02T00:25:11;100323.31;;;11.93;77.88
20825;BME280;10573;50.936;6.978;2023-04-02T00:27:37;100326.47;;;12.15;77.48
20825;BME280;10573;50.936;6.978;2023-04-02T00:30:03;100336.56;;;11.80;77.68
20825;BME280;10573;50.936;6.978;2023-04-02T00:32:31;100338.94;;;11.83;77.90
20825;BME280;10573;50.936;6.978;2023-04-02T00:34:57;100345.09;;;11.85;77.67
20825;BME280;10573;50.936;6.978;2023-04-02T00:37:24;100346.44;;;11.72;78.26
20825;BME280;10573;50.936;6.978;2023-04-02T00:39:54;100342.22;;;11.86;77.96
20825;BME280;10573;50.936;6.978;2023-04-02T00:42:21;100346.16;;;11.92;77.46
20825;BME280;10573;50.936;6.978;2023-04-02T00:44:49;100349.56;;;11.86;77.24
20825;BME280;10573;50.936;6.978;2023-04-02T00:47:17;100358.66;;;11.95;77.43
20825;BME280;10573;50.936;6.978;2023-04-02T00:49:44;100361.16;;;11.88;77.45
20825;BME280;10573;50.936;6.978;2023-04-02T00:52:14;100364.69;;;12.06;76.91
20825;BME280;10573;50.936;6.978;2023-04-02T00:55:02;100364.25;;;11.93;77.19
20825;BME280;10573;50.936;6.978;2023-04-02T00:57:28;100371.06;;;11.89;77.86
20825;BME280;10573;50.936;6.978;2023-04-02T00:59:56;100373.34;;;12.02;77.15
20825;BME280;10573;50.936;6.978;2023-04-02T01:02:23;100381.84;;;11.38;78.33
20825;BME280;10573;50.936;6.978;2023-04-02T01:10:22;100394.91;;;10.90;79.91
20825;BME280;10573;50.936;6.978;2023-04-02T01:15:18;100400.97;;;10.48;80.66
20825;BME280;10573;50.936;6.978;2023-04-02T01:17:47;100402.28;;;10.44;81.24
20825;BME280;10573;50.936;6.978;2023-04-02T01:23:26;100412.63;;;10.58;80.02
20825;BME280;10573;50.936;6.978;2023-04-02T01:25:57;100423.69;;;10.38;79.57
20825;BME280;10573;50.936;6.978;2023-04-02T01:28:30;100424.75;;;10.46;78.95
20825;BME280;10573;50.936;6.978;2023-04-02T01:30:57;100424.56;;;10.29;80.10
20825;BME280;10573;50.936;6.978;2023-04-02T01:33:29;100439.47;;;10.25;80.52
20825;BME280;10573;50.936;6.978;2023-04-02T01:36:00;100444.50;;;9.82;81.28
20825;BME280;10573;50.936;6.978;2023-04-02T01:38:32;100454.72;;;10.08;80.87
20825;BME280;10573;50.936;6.978;2023-04-02T01:41:00;100460.16;;;10.08;80.42
20825;BME280;10573;50.936;6.978;2023-04-02T01:43:32;100452.94;;;9.89;80.03
20825;BME280;10573;50.936;6.978;2023-04-02T01:46:05;100457.06;;;9.93;79.28
20825;BME280;10573;50.936;6.978;2023-04-02T01:48:47;100464.88;;;10.53;78.22
20825;BME280;10573;50.936;6.978;2023-04-02T01:51:22;100467.50;;;10.07;78.21
20825;BME280;10573;50.936;6.978;2023-04-02T01:53:49;100478.53;;;9.96;78.19
20825;BME280;10573;50.936;6.978;2023-04-02T01:56:14;100474.72;;;9.89;78.84
20825;BME280;10573;50.936;6.978;2023-04-02T01:58:40;100481.91;;;10.18;77.89
20825;BME280;10573;50.936;6.978;2023-04-02T02:01:06;100486.19;;;9.73;78.08
20825;BME280;10573;50.936;6.978;2023-04-02T02:03:37;100500.75;;;10.49;76.30
20825;BME280;10573;50.936;6.978;2023-04-02T02:06:04;100501.47;;;10.03;76.85
20825;BME280;10573;50.936;6.978;2023-04-02T02:10:58;100502.03;;;9.97;76.36
20825;BME280;10573;50.936;6.978;2023-04-02T02:13:24;100514.81;;;10.34;75.51
20825;BME280;10573;50.936;6.978;2023-04-02T02:15:49;100522.66;;;10.00;76.44
20825;BME280;10573;50.936;6.978;2023-04-02T02:18:15;100528.31;;;10.26;75.50
20825;BME280;10573;50.936;6.978;2023-04-02T02:20:43;100529.81;;;10.48;74.75
20825;BME280;10573;50.936;6.978;2023-04-02T02:23:09;100546.75;;;9.36;76.53
20825;BME280;10573;50.936;6.978;2023-04-02T02:25:35;100546.84;;;10.03;76.10
20825;BME280;10573;50.936;6.978;2023-04-02T02:28:09;100545.47;;;9.69;75.70
20825;BME280;10573;50.936;6.978;2023-04-02T02:30:40;100549.91;;;9.70;75.46
20825;BME280;10573;50.936;6.978;2023-04-02T02:35:43;100568.53;;;9.46;76.21
20825;BME280;10573;50.936;6.978;2023-04-02T02:40:43;100573.97;;;9.85;74.92
20825;BME280;10573;50.936;6.978;2023-04-02T02:43:10;100578.25;;;9.68;75.73
20825;BME280;10573;50.936;6.978;2023-04-02T02:45:37;100580.28;;;9.66;75.48
20825;BME280;10573;50.936;6.978;2023-04-02T02:48:07;100590.00;;;9.88;75.49
20825;BME280;10573;50.936;6.978;2023-04-02T02:50:34;100604.75;;;9.76;74.67
20825;BME280;10573;50.936;6.978;2023-04-02T02:53:02;100590.78;;;10.18;74.11
20825;BME280;10573;50.936;6.978;2023-04-02T02:55:29;100599.13;;;10.06;73.71
20825;BME280;10573;50.936;6.978;2023-04-02T02:58:29;100599.75;;;9.81;74.60
20825;BME280;10573;50.936;6.978;2023-04-02T03:00:48;100604.00;;;10.03;74.06
20825;BME280;10573;50.936;6.978;2023-04-02T03:03:15;100623.22;;;9.62;74.39
20825;BME280;10573;50.936;6.978;2023-04-02T03:05:41;100621.63;;;9.69;73.53
20825;BME280;10573;50.936;6.978;2023-04-02T03:08:12;100620.06;;;9.57;74.58
20825;BME280;10573;50.936;6.978;2023-04-02T03:13:26;100634.50;;;9.48;73.89
20825;BME280;10573;50.936;6.978;2023-04-02T03:18:22;100641.53;;;9.60;74.13
20825;BME280;10573;50.936;6.978;2023-04-02T03:20:52;100659.50;;;9.22;73.61
20825;BME280;10573;50.936;6.978;2023-04-02T03:25:51;100673.25;;;9.30;73.87
20825;BME280;10573;50.936;6.978;2023-04-02T03:28:22;100669.09;;;9.26;74.61
20825;BME280;10573;50.936;6.978;2023-04-02T03:30:51;100672.91;;;9.04;74.21
20825;BME280;10573;50.936;6.978;2023-04-02T03:38:18;100696.06;;;9.49;72.89
20825;BME280;10573;50.936;6.978;2023-04-02T03:40:48;100699.75;;;9.48;72.78
20825;BME280;10573;50.936;6.978;2023-04-02T03:43:19;100701.00;;;9.24;73.44
20825;BME280;10573;50.936;6.978;2023-04-02T03:45:50;100711.59;;;9.27;73.54
20825;BME280;10573;50.936;6.978;2023-04-02T03:48:19;100714.97;;;8.79;74.85
20825;BME280;10573;50.936;6.978;2023-04-02T03:53:13;100719.59;;;9.29;73.41
20825;BME280;10573;50.936;6.978;2023-04-02T03:55:38;100730.81;;;9.04;73.67
20825;BME280;10573;50.936;6.978;2023-04-02T03:58:19;100733.97;;;8.57;74.82
20825;BME280;10573;50.936;6.978;2023-04-02T04:03:14;100747.66;;;8.98;74.32
20825;BME280;10573;50.936;6.978;2023-04-02T04:05:59;100753.16;;;8.45;74.96
20825;BME280;10573;50.936;6.978;2023-04-02T04:08:29;100755.13;;;9.06;74.37
20825;BME280;10573;50.936;6.978;2023-04-02T04:10:58;100763.91;;;8.67;75.60
20825;BME280;10573;50.936;6.978;2023-04-02T04:13:28;100767.69;;;8.55;75.30
20825;BME280;10573;50.936;6.978;2023-04-02T04:15:57;100775.25;;;8.51;75.08
20825;BME280;10573;50.936;6.978;2023-04-02T04:21:00;100781.66;;;8.50;76.33
20825;BME280;10573;50.936;6.978;2023-04-02T04:23:34;100786.63;;;8.45;75.85
20825;BME280;10573;50.936;6.978;2023-04-02T04:26:22;100793.84;;;8.23;76.76
20825;BME280;10573;50.936;6.978;2023-04-02T04:34:45;100812.38;;;8.51;74.86
20825;BME280;10573;50.936;6.978;2023-04-02T04:37:06;100819.44;;;8.75;74.57
20825;BME280;10573;50.936;6.978;2023-04-02T04:39:49;100825.94;;;8.62;74.57
20825;BME280;10573;50.936;6.978;2023-04-02T04:42:26;100835.41;;;8.24;74.83
20825;BME280;10573;50.936;6.978;2023-04-02T04:45:00;100833.72;;;8.44;74.76
20825;BME280;10573;50.936;6.978;2023-04-02T04:47:28;100847.03;;;8.15;76.09
20825;BME280;10573;50.936;6.978;2023-04-02T04:49:59;100854.66;;;8.21;75.91
20825;BME280;10573;50.936;6.978;2023-04-02T04:52:37;100863.44;;;8.13;75.36
20825;BME280;10573;50.936;6.978;2023-04-02T04:55:17;100865.19;;;8.58;74.43
20825;BME280;10573;50.936;6.978;2023-04-02T04:57:43;100864.16;;;8.27;74.37
20825;BME280;10573;50.936;6.978;2023-04-02T05:00:19;100880.50;;;8.36;74.17
20825;BME280;10573;50.936;6.978;2023-04-02T05:02:51;100889.00;;;7.99;75.47
20825;BME280;10573;50.936;6.978;2023-04-02T05:05:19;100894.56;;;8.42;74.90
20825;BME280;10573;50.936;6.978;2023-04-02T05:07:52;100903.06;;;8.04;75.56
20825;BME280;10573;50.936;6.978;2023-04-02T05:10:40;100902.03;;;8.05;75.48
20825;BME280;10573;50.936;6.978;2023-04-02T05:15:48;100913.72;;;8.40;73.71
20825;BME280;10573;50.936;6.978;2023-04-02T05:21:17;100934.13;;;7.78;74.67
20825;BME280;10573;50.936;6.978;2023-04-02T05:26:29;100942.38;;;7.53;75.62
20825;BME280;10573;50.936;6.978;2023-04-02T05:31:57;100954.72;;;7.80;75.23
20825;BME280;10573;50.936;6.978;2023-04-02T05:34:26;100957.03;;;7.62;75.49
20825;BME280;10573;50.936;6.978;2023-04-02T05:36:53;100957.03;;;7.96;74.82
20825;BME280;10573;50.936;6.978;2023-04-02T05:39:22;100967.75;;;7.64;75.01
20825;BME280;10573;50.936;6.978;2023-04-02T05:41:51;100976.78;;;7.64;75.12
20825;BME280;10573;50.936;6.978;2023-04-02T05:44:23;100977.78;;;7.86;75.07
20825;BME280;10573;50.936;6.978;2023-04-02T05:46:56;100973.34;;;8.07;74.34
20825;BME280;10573;50.936;6.978;2023-04-02T05:49:24;100981.72;;;8.16;73.76
20825;BME280;10573;50.936;6.978;2023-04-02T05:51:51;100996.72;;;7.75;74.34
20825;BME280;10573;50.936;6.978;2023-04-02T05:54:19;101000.59;;;7.83;74.33
20825;BME280;10573;50.936;6.978;2023-04-02T05:56:48;101004.34;;;7.58;74.86
20825;BME280;10573;50.936;6.978;2023-04-02T06:01:45;101023.28;;;7.94;74.41
20825;BME280;10573;50.936;6.978;2023-04-02T06:04:22;101027.84;;;7.46;75.28
20825;BME280;10573;50.936;6.978;2023-04-02T06:07:00;101029.16;;;7.76;74.68
20825;BME280;10573;50.936;6.978;2023-04-02T06:10:10;101035.00;;;7.47;75.13
20825;BME280;10573;50.936;6.978;2023-04-02T06:12:30;101049.19;;;7.51;75.09
20825;BME280;10573;50.936;6.978;2023-04-02T06:14:59;101048.44;;;7.84;74.79
20825;BME280;10573;50.936;6.978;2023-04-02T06:17:24;101053.47;;;7.78;74.88
20825;BME280;10573;50.936;6.978;2023-04-02T06:19:51;101061.66;;;7.53;74.95
20825;BME280;10573;50.936;6.978;2023-04-02T06:22:22;101063.72;;;7.50;74.87
20825;BME280;10573;50.936;6.978;2023-04-02T06:24:51;101076.09;;;7.65;74.18
20825;BME280;10573;50.936;6.978;2023-04-02T06:27:19;101072.56;;;7.41;74.51
20825;BME280;10573;50.936;6.978;2023-04-02T06:29:46;101081.38;;;8.02;73.23
20825;BME280;10573;50.936;6.978;2023-04-02T06:32:12;101089.25;;;8.05;73.11
20825;BME280;10573;50.936;6.978;2023-04-02T06:34:38;101087.84;;;7.42;73.85
20825;BME280;10573;50.936;6.978;2023-04-02T06:37:12;101100.50;;;7.65;74.40
20825;BME280;10573;50.936;6.978;2023-04-02T06:39:39;101102.31;;;7.53;74.26
20825;BME280;10573;50.936;6.978;2023-04-02T06:42:08;101111.28;;;7.89;73.05
20825;BME280;10573;50.936;6.978;2023-04-02T06:44:35;101121.56;;;7.97;72.52
20825;BME280;10573;50.936;6.978;2023-04-02T06:47:03;101114.56;;;8.06;73.04
20825;BME280;10573;50.936;6.978;2023-04-02T06:49:48;101122.53;;;7.96;73.39
20825;BME280;10573;50.936;6.978;2023-04-02T06:52:38;101131.28;;;7.88;73.31
20825;BME280;10573;50.936;6.978;2023-04-02T06:55:03;101129.03;;;8.18;72.38
20825;BME280;10573;50.936;6.978;2023-04-02T06:57:29;101143.69;;;7.80;73.02
20825;BME280;10573;50.936;6.978;2023-04-02T06:59:56;101149.53;;;7.86;73.27
20825;BME280;10573;50.936;6.978;2023-04-02T07:02:30;101154.69;;;7.54;73.01
20825;BME280;10573;50.936;6.978;2023-04-02T07:05:03;101164.16;;;7.72;72.91
20825;BME280;10573;50.936;6.978;2023-04-02T07:07:29;101173.53;;;7.80;72.54
20825;BME280;10573;50.936;6.978;2023-04-02T07:09:55;101176.81;;;7.96;72.47
20825;BME280;10573;50.936;6.978;2023-04-02T07:12:23;101186.13;;;7.19;72.89
20825;BME280;10573;50.936;6.978;2023-04-02T07:14:49;101193.50;;;7.54;73.15
20825;BME280;10573;50.936;6.978;2023-04-02T07:17:15;101203.06;;;7.96;73.12
20825;BME280;10573;50.936;6.978;2023-04-02T07:19:41;101213.91;;;7.60;72.32
20825;BME280;10573;50.936;6.978;2023-04-02T07:22:09;101215.84;;;7.58;72.26
20825;BME280;10573;50.936;6.978;2023-04-02T07:24:35;101222.47;;;7.17;73.89
20825;BME280;10573;50.936;6.978;2023-04-02T07:27:00;101228.09;;;7.14;73.27
20825;BME280;10573;50.936;6.978;2023-04-02T07:29:25;101225.19;;;7.54;72.72
20825;BME280;10573;50.936;6.978;2023-04-02T07:31:51;101236.47;;;6.98;73.89
20825;BME280;10573;50.936;6.978;2023-04-02T07:34:17;101237.59;;;7.32;73.79
20825;BME280;10573;50.936;6.978;2023-04-02T07:36:43;101245.00;;;7.92;71.65
20825;BME280;10573;50.936;6.978;2023-04-02T07:39:08;101246.88;;;7.54;72.17
20825;BME280;10573;50.936;6.978;2023-04-02T07:41:49;101255.56;;;8.07;71.51
20825;BME280;10573;50.936;6.978;2023-04-02T07:44:14;101265.56;;;7.46;72.22
20825;BME280;10573;50.936;6.978;2023-04-02T07:46:40;101275.44;;;7.34;73.36
20825;BME280;10573;50.936;6.978;2023-04-02T07:49:05;101275.09;;;7.38;73.04
20825;BME280;10573;50.936;6.978;2023-04-02T07:51:31;101276.03;;;7.13;73.51
20825;BME280;10573;50.936;6.978;2023-04-02T07:53:57;101280.97;;;7.32;73.02
20825;BME280;10573;50.936;6.978;2023-04-02T07:56:22;101286.00;;;6.87;73.53
20825;BME280;10573;50.936;6.978;2023-04-02T07:58:48;101286.63;;;7.16;73.36
20825;BME280;10573;50.936;6.978;2023-04-02T08:01:18;101289.22;;;7.18;72.56
20825;BME280;10573;50.936;6.978;2023-04-02T08:03:43;101302.41;;;7.48;72.74
20825;BME280;10573;50.936;6.978;2023-04-02T08:06:09;101298.75;;;7.36;72.49
20825;BME280;10573;50.936;6.978;2023-04-02T08:08:34;101315.47;;;7.04;72.73
20825;BME280;10573;50.936;6.978;2023-04-02T08:11:00;101315.91;;;7.24;73.41
20825;BME280;10573;50.936;6.978;2023-04-02T08:13:25;101324.91;;;7.75;71.94
20825;BME280;10573;50.936;6.978;2023-04-02T08:15:50;101326.41;;;7.79;71.36
20825;BME280;10573;50.936;6.978;2023-04-02T08:18:16;101328.56;;;7.49;71.17
20825;BME280;10573;50.936;6.978;2023-04-02T08:20:41;101338.97;;;7.93;70.83
20825;BME280;10573;50.936;6.978;2023-04-02T08:23:13;101343.50;;;7.92;70.45
20825;BME280;10573;50.936;6.978;2023-04-02T08:25:41;101353.81;;;8.00;69.94
20825;BME280;10573;50.936;6.978;2023-04-02T08:28:06;101362.81;;;8.00;69.37
20825;BME280;10573;50.936;6.978;2023-04-02T08:30:31;101363.91;;;7.22;70.83
20825;BME280;10573;50.936;6.978;2023-04-02T08:32:57;101370.56;;;7.81;70.81
20825;BME280;10573;50.936;6.978;2023-04-02T08:35:22;101371.72;;;7.39;71.23
20825;BME280;10573;50.936;6.978;2023-04-02T08:37:47;101380.63;;;8.04;70.41
20825;BME280;10573;50.936;6.978;2023-04-02T08:40:46;101389.53;;;7.94;69.26
20825;BME280;10573;50.936;6.978;2023-04-02T08:48:16;101404.00;;;7.68;70.11
20825;BME280;10573;50.936;6.978;2023-04-02T08:50:42;101405.88;;;7.55;70.53
20825;BME280;10573;50.936;6.978;2023-04-02T08:53:12;101407.47;;;7.83;70.53
20825;BME280;10573;50.936;6.978;2023-04-02T09:00:46;101424.28;;;7.37;71.20
20825;BME280;10573;50.936;6.978;2023-04-02T09:05:44;101431.22;;;7.80;69.99
20825;BME280;10573;50.936;6.978;2023-04-02T09:10:44;101443.59;;;7.58;69.97
20825;BME280;10573;50.936;6.978;2023-04-02T09:13:15;101446.19;;;7.60;69.07
20825;BME280;10573;50.936;6.978;2023-04-02T09:15:42;101448.75;;;8.13;70.54
20825;BME280;10573;50.936;6.978;2023-04-02T09:18:12;101455.09;;;7.75;69.74
20825;BME280;10573;50.936;6.978;2023-04-02T09:20:38;101461.59;;;7.33;69.45
20825;BME280;10573;50.936;6.978;2023-04-02T09:23:04;101460.75;;;7.71;69.49
20825;BME280;10573;50.936;6.978;2023-04-02T09:25:31;101470.47;;;7.22;70.18
20825;BME280;10573;50.936;6.978;2023-04-02T09:27:59;101476.03;;;7.85;69.33
20825;BME280;10573;50.936;6.978;2023-04-02T09:32:56;101485.69;;;7.77;67.99
20825;BME280;10573;50.936;6.978;2023-04-02T09:35:27;101485.91;;;7.99;68.88
20825;BME280;10573;50.936;6.978;2023-04-02T09:40:50;101495.88;;;7.99;67.20
20825;BME280;10573;50.936;6.978;2023-04-02T09:43:17;101515.09;;;8.09;67.13
20825;BME280;10573;50.936;6.978;2023-04-02T09:45:43;101523.84;;;8.38;66.27
20825;BME280;10573;50.936;6.978;2023-04-02T09:48:25;101529.72;;;8.32;66.21
20825;BME280;10573;50.936;6.978;2023-04-02T09:53:29;101535.81;;;8.10;66.58
20825;BME280;10573;50.936;6.978;2023-04-02T09:56:07;101534.94;;;7.96;66.73
20825;BME280;10573;50.936;6.978;2023-04-02T09:58:33;101541.88;;;8.26;66.40
20825;BME280;10573;50.936;6.978;2023-04-02T10:00:58;101539.22;;;8.63;65.39
20825;BME280;10573;50.936;6.978;2023-04-02T10:06:09;101558.50;;;7.70;67.47
20825;BME280;10573;50.936;6.978;2023-04-02T10:08:35;101567.94;;;7.90;66.34
20825;BME280;10573;50.936;6.978;2023-04-02T10:11:02;101566.09;;;7.78;67.35
20825;BME280;10573;50.936;6.978;2023-04-02T10:13:29;101567.38;;;7.72;68.19
20825;BME280;10573;50.936;6.978;2023-04-02T10:16:11;101573.69;;;7.98;67.80
20825;BME280;10573;50.936;6.978;2023-04-02T10:18:42;101579.19;;;7.58;67.74
20825;BME280;10573;50.936;6.978;2023-04-02T10:21:12;101585.28;;;7.62;68.16
20825;BME280;10573;50.936;6.978;2023-04-02T10:23:40;101588.13;;;7.86;67.65
20825;BME280;10573;50.936;6.978;2023-04-02T10:26:15;101602.34;;;7.77;67.36
20825;BME280;10573;50.936;6.978;2023-04-02T10:39:53;101615.28;;;8.63;65.92
20825;BME280;10573;50.936;6.978;2023-04-02T10:42:29;101615.69;;;9.20;63.79
20825;BME280;10573;50.936;6.978;2023-04-02T10:47:37;101630.16;;;9.07;63.19
20825;BME280;10573;50.936;6.978;2023-04-02T10:50:26;101628.50;;;8.81;64.11
20825;BME280;10573;50.936;6.978;2023-04-02T10:55:26;101628.75;;;8.65;64.37
20825;BME280;10573;50.936;6.978;2023-04-02T10:57:53;101640.53;;;9.02;63.75
20825;BME280;10573;50.936;6.978;2023-04-02T11:00:24;101645.22;;;8.87;63.17
20825;BME280;10573;50.936;6.978;2023-04-02T11:02:55;101649.38;;;8.67;63.29
20825;BME280;10573;50.936;6.978;2023-04-02T11:07:56;101663.28;;;9.50;61.81
20825;BME280;10573;50.936;6.978;2023-04-02T11:10:23;101669.06;;;9.69;61.14
20825;BME280;10573;50.936;6.978;2023-04-02T11:12:54;101678.66;;;9.14;61.36
20825;BME280;10573;50.936;6.978;2023-04-02T11:15:20;101679.66;;;9.37;61.63
20825;BME280;10573;50.936;6.978;2023-04-02T11:17:46;101676.97;;;8.74;61.67
20825;BME280;10573;50.936;6.978;2023-04-02T11:23:11;101683.47;;;8.97;61.99
20825;BME280;10573;50.936;6.978;2023-04-02T11:25:37;101688.41;;;9.78;60.93
20825;BME280;10573;50.936;6.978;2023-04-02T11:30:38;101708.97;;;8.04;63.40
20825;BME280;10573;50.936;6.978;2023-04-02T11:33:24;101701.84;;;8.81;62.22
20825;BME280;10573;50.936;6.978;2023-04-02T11:35:49;101703.91;;;9.03;62.34
20825;BME280;10573;50.936;6.978;2023-04-02T11:40:50;101706.94;;;9.11;60.93
20825;BME280;10573;50.936;6.978;2023-04-02T11:46:00;101726.78;;;8.49;62.20
20825;BME280;10573;50.936;6.978;2023-04-02T11:48:27;101715.31;;;9.08;62.15
20825;BME280;10573;50.936;6.978;2023-04-02T11:50:53;101718.03;;;8.95;62.23
20825;BME280;10573;50.936;6.978;2023-04-02T11:53:20;101719.81;;;9.33;62.03
20825;BME280;10573;50.936;6.978;2023-04-02T12:11:38;101733.97;;;9.87;59.08
20825;BME280;10573;50.936;6.978;2023-04-02T12:14:27;101736.63;;;10.00;59.49
20825;BME280;10573;50.936;6.978;2023-04-02T12:16:52;101737.28;;;10.03;58.47
20825;BME280;10573;50.936;6.978;2023-04-02T12:19:17;101744.22;;;9.59;59.72
20825;BME280;10573;50.936;6.978;2023-04-02T12:21:44;101750.78;;;10.16;58.18
20825;BME280;10573;50.936;6.978;2023-04-02T12:24:14;101751.06;;;9.65;58.23
20825;BME280;10573;50.936;6.978;2023-04-02T12:26:41;101765.66;;;9.14;60.02
20825;BME280;10573;50.936;6.978;2023-04-02T12:29:13;101777.78;;;8.44;60.79
20825;BME280;10573;50.936;6.978;2023-04-02T12:31:43;101767.34;;;9.40;59.65
20825;BME280;10573;50.936;6.978;2023-04-02T12:34:13;101766.13;;;8.69;60.83
20825;BME280;10573;50.936;6.978;2023-04-02T12:36:49;101773.38;;;9.07;60.64
20825;BME280;10573;50.936;6.978;2023-04-02T12:39:15;101767.38;;;8.63;61.29
20825;BME280;10573;50.936;6.978;2023-04-02T12:41:41;101770.38;;;9.36;59.77
20825;BME280;10573;50.936;6.978;2023-04-02T12:44:20;101775.13;;;9.58;59.68
20825;BME280;10573;50.936;6.978;2023-04-02T12:46:47;101781.09;;;9.13;59.83
20825;BME280;10573;50.936;6.978;2023-04-02T12:51:41;101784.63;;;9.39;59.84
20825;BME280;10573;50.936;6.978;2023-04-02T12:54:09;101804.03;;;8.96;60.69
20825;BME280;10573;50.936;6.978;2023-04-02T12:56:37;101784.34;;;9.68;59.72
20825;BME280;10573;50.936;6.978;2023-04-02T12:59:02;101784.78;;;8.73;61.19
20825;BME280;10573;50.936;6.978;2023-04-02T13:01:28;101787.03;;;9.31;60.23
20825;BME280;10573;50.936;6.978;2023-04-02T13:04:08;101793.34;;;9.82;58.89
20825;BME280;10573;50.936;6.978;2023-04-02T13:06:36;101804.34;;;9.30;59.95
20825;BME280;10573;50.936;6.978;2023-04-02T13:09:03;101807.16;;;9.16;59.55
20825;BME280;10573;50.936;6.978;2023-04-02T13:11:36;101800.72;;;9.43;59.72
20825;BME280;10573;50.936;6.978;2023-04-02T13:14:02;101804.44;;;9.42;58.48
20825;BME280;10573;50.936;6.978;2023-04-02T13:16:36;101797.84;;;9.70;57.50
20825;BME280;10573;50.936;6.978;2023-04-02T13:19:09;101803.47;;;9.17;59.69
20825;BME280;10573;50.936;6.978;2023-04-02T13:21:34;101804.38;;;9.67;58.58
20825;BME280;10573;50.936;6.978;2023-04-02T13:24:00;101810.31;;;9.22;59.29
20825;BME280;10573;50.936;6.978;2023-04-02T13:26:26;101805.59;;;9.63;59.14
20825;BME280;10573;50.936;6.978;2023-04-02T13:28:59;101803.19;;;9.58;57.83
20825;BME280;10573;50.936;6.978;2023-04-02T13:31:26;101810.16;;;9.87;57.43
20825;BME280;10573;50.936;6.978;2023-04-02T13:33:51;101810.41;;;9.47;58.58
20825;BME280;10573;50.936;6.978;2023-04-02T13:36:16;101811.75;;;9.65;57.60
20825;BME280;10573;50.936;6.978;2023-04-02T13:38:42;101819.91;;;10.02;57.07
20825;BME280;10573;50.936;6.978;2023-04-02T13:43:41;101829.59;;;9.06;59.10
20825;BME280;10573;50.936;6.978;2023-04-02T13:46:07;101826.63;;;9.48;59.01
20825;BME280;10573;50.936;6.978;2023-04-02T13:48:32;101837.09;;;9.79;57.44
20825;BME280;10573;50.936;6.978;2023-04-02T13:50:58;101836.25;;;9.65;56.70
20825;BME280;10573;50.936;6.978;2023-04-02T13:53:28;101841.00;;;9.37;56.79
20825;BME280;10573;50.936;6.978;2023-04-02T13:55:55;101851.13;;;9.10;58.70
20825;BME280;10573;50.936;6.978;2023-04-02T13:58:21;101847.66;;;9.33;57.75
20825;BME280;10573;50.936;6.978;2023-04-02T14:00:46;101852.88;;;10.11;56.83
20825;BME280;10573;50.936;6.978;2023-04-02T14:03:15;101846.09;;;9.92;58.25
20825;BME280;10573;50.936;6.978;2023-04-02T14:11:14;101855.66;;;9.48;57.25
20825;BME280;10573;50.936;6.978;2023-04-02T14:19:08;101873.09;;;9.95;56.06
20825;BME280;10573;50.936;6.978;2023-04-02T14:24:15;101882.22;;;9.44;57.05
20825;BME280;10573;50.936;6.978;2023-04-02T14:31:46;101894.53;;;9.87;56.32
20825;BME280;10573;50.936;6.978;2023-04-02T14:39:32;101919.50;;;9.03;57.08
20825;BME280;10573;50.936;6.978;2023-04-02T14:42:05;101908.31;;;9.60;55.75
20825;BME280;10573;50.936;6.978;2023-04-02T14:44:35;101910.50;;;9.29;56.03
20825;BME280;10573;50.936;6.978;2023-04-02T14:47:22;101919.63;;;9.15;55.83
20825;BME280;10573;50.936;6.978;2023-04-02T14:49:50;101919.09;;;9.61;55.18
20825;BME280;10573;50.936;6.978;2023-04-02T14:52:19;101922.03;;;9.58;54.21
20825;BME280;10573;50.936;6.978;2023-04-02T14:54:53;101918.53;;;9.56;54.16
20825;BME280;10573;50.936;6.978;2023-04-02T15:07:44;101941.53;;;8.31;55.99
20825;BME280;10573;50.936;6.978;2023-04-02T15:10:16;101948.44;;;8.08;56.89
20825;BME280;10573;50.936;6.978;2023-04-02T15:12:44;101945.88;;;8.76;56.20
20825;BME280;10573;50.936;6.978;2023-04-02T15:17:36;101956.19;;;9.11;55.10
20825;BME280;10573;50.936;6.978;2023-04-02T15:20:07;101962.06;;;8.50;55.30
20825;BME280;10573;50.936;6.978;2023-04-02T15:22:41;101961.22;;;8.20;55.45
20825;BME280;10573;50.936;6.978;2023-04-02T15:25:11;101956.56;;;8.64;54.87
20825;BME280;10573;50.936;6.978;2023-04-02T15:30:13;101956.59;;;9.04;54.69
20825;BME280;10573;50.936;6.978;2023-04-02T15:32:39;101960.09;;;9.06;54.04
20825;BME280;10573;50.936;6.978;2023-04-02T15:35:08;101971.66;;;8.55;54.79
20825;BME280;10573;50.936;6.978;2023-04-02T15:40:22;101970.56;;;9.38;53.24
20825;BME280;10573;50.936;6.978;2023-04-02T15:42:53;101974.84;;;8.06;55.11
20825;BME280;10573;50.936;6.978;2023-04-02T15:48:17;101984.00;;;8.47;54.27
20825;BME280;10573;50.936;6.978;2023-04-02T15:53:38;101993.78;;;8.20;54.75
20825;BME280;10573;50.936;6.978;2023-04-02T16:01:14;102000.63;;;8.69;53.56
20825;BME280;10573;50.936;6.978;2023-04-02T16:03:54;102003.91;;;8.75;54.02
20825;BME280;10573;50.936;6.978;2023-04-02T16:11:26;102016.16;;;8.95;53.26
20825;BME280;10573;50.936;6.978;2023-04-02T16:13:58;102027.31;;;9.30;53.12
20825;BME280;10573;50.936;6.978;2023-04-02T16:16:26;102033.53;;;8.92;52.80
20825;BME280;10573;50.936;6.978;2023-04-02T16:19:02;102037.06;;;8.23;53.52
20825;BME280;10573;50.936;6.978;2023-04-02T16:21:33;102037.13;;;8.65;52.31
20825;BME280;10573;50.936;6.978;2023-04-02T16:24:01;102037.53;;;8.30;53.52
20825;BME280;10573;50.936;6.978;2023-04-02T16:40:03;102065.81;;;8.40;51.71
20825;BME280;10573;50.936;6.978;2023-04-02T16:47:48;102065.31;;;9.04;50.27